createdAt,value
2022-10-14T00:00:12.409Z,49.13
2022-10-14T00:05:13.923Z,46.03
2022-10-14T00:10:15.428Z,45.92
2022-10-14T00:15:17.338Z,49.17
2022-10-14T00:20:18.763Z,48.35
2022-10-14T00:25:20.187Z,46.83
2022-10-14T00:30:21.604Z,44.92
2022-10-14T00:35:23.731Z,52.47
2022-10-14T00:40:26.560Z,48.65
2022-10-14T00:45:28.146Z,46.92
2022-10-14T00:50:29.576Z,49.50
2022-10-14T00:55:31.293Z,51.85
2022-10-14T01:00:33.258Z,47.47
2022-10-14T01:05:44.091Z,52.53
2022-10-14T01:10:54.799Z,47.42
2022-10-14T01:16:05.195Z,48.50
2022-10-14T01:21:27.523Z,50.72
2022-10-14T01:26:58.708Z,52.60
2022-10-14T01:32:09.790Z,49.50
2022-10-14T01:37:19.197Z,57.10
2022-10-14T01:42:25.945Z,51.13
2022-10-14T01:47:33.012Z,50.90
2022-10-14T01:52:40.602Z,51.22
2022-10-14T01:57:44.192Z,49.25
2022-10-14T02:02:45.686Z,53.22
2022-10-14T02:07:53.741Z,54.60
2022-10-14T02:13:28.912Z,55.53
2022-10-14T02:18:40.707Z,51.90
2022-10-14T02:23:47.899Z,49.33
2022-10-14T02:28:50.840Z,50.03
2022-10-14T02:33:56.149Z,52.47
2022-10-14T02:39:00.590Z,54.50
2022-10-14T02:44:02.293Z,50.53
2022-10-14T02:49:04.047Z,53.08
2022-10-14T02:54:05.733Z,51.13
2022-10-14T02:59:07.392Z,48.03
2022-10-14T03:04:08.848Z,48.15
2022-10-14T03:09:10.243Z,49.72
2022-10-14T03:14:12.270Z,47.78
2022-10-14T03:19:13.896Z,55.95
2022-10-14T03:24:15.314Z,51.00
2022-10-14T03:29:17.131Z,54.83
2022-10-14T03:34:18.732Z,54.17
2022-10-14T03:39:20.536Z,49.47
2022-10-14T03:44:22.028Z,56.55
2022-10-14T03:49:23.740Z,53.22
2022-10-14T03:54:25.165Z,52.53
2022-10-14T03:59:26.590Z,51.28
2022-10-14T04:04:28.004Z,51.70
2022-10-14T04:09:29.479Z,55.60
2022-10-14T04:14:30.965Z,48.50
2022-10-14T04:19:32.625Z,51.58
2022-10-14T04:24:34.049Z,55.03
2022-10-14T04:29:35.468Z,57.95
2022-10-14T04:34:36.979Z,55.65
2022-10-14T04:39:38.551Z,59.85
2022-10-14T04:44:40.739Z,57.67
2022-10-14T04:49:42.203Z,49.80
2022-10-14T04:54:43.783Z,54.38
2022-10-14T04:59:45.187Z,55.97
2022-10-14T05:04:46.586Z,60.55
2022-10-14T05:09:50.470Z,57.10
2022-10-14T05:14:55.096Z,60.78
2022-10-14T05:19:56.533Z,51.88
2022-10-14T05:24:57.982Z,57.88
2022-10-14T05:29:59.425Z,56.03
2022-10-14T05:35:00.857Z,53.53
2022-10-14T05:40:02.335Z,60.40
2022-10-14T05:45:04.909Z,55.38
2022-10-14T05:50:06.775Z,53.92
2022-10-14T05:55:08.914Z,57.42
2022-10-14T06:00:10.932Z,49.78
2022-10-14T06:05:12.359Z,54.08
2022-10-14T06:10:13.799Z,49.83
2022-10-14T06:15:15.321Z,56.78
2022-10-14T06:20:16.799Z,50.78
2022-10-14T06:25:18.205Z,55.20
2022-10-14T06:30:19.819Z,55.35
2022-10-14T06:35:21.207Z,54.33
2022-10-14T06:40:22.650Z,54.10
2022-10-14T06:45:24.213Z,50.80
2022-10-14T06:50:25.797Z,57.03
2022-10-14T06:55:27.217Z,52.00
2022-10-14T07:00:28.654Z,56.72
2022-10-14T07:05:30.336Z,50.05
2022-10-14T07:10:31.752Z,51.42
2022-10-14T07:15:35.430Z,57.22
2022-10-14T07:20:37.904Z,56.83
2022-10-14T07:25:39.443Z,60.35
2022-10-14T07:30:40.894Z,53.63
2022-10-14T07:35:42.297Z,57.38
2022-10-14T07:40:43.698Z,53.42
2022-10-14T07:45:47.808Z,54.33
2022-10-14T07:50:50.189Z,56.90
2022-10-14T07:55:52.629Z,53.85
2022-10-14T08:00:55.042Z,60.15
2022-10-14T08:06:01.332Z,55.45
2022-10-14T08:11:04.577Z,52.90
2022-10-14T08:16:30.091Z,48.65
2022-10-14T08:21:31.551Z,43.70
2022-10-14T08:26:38.221Z,51.10
2022-10-14T08:31:39.685Z,47.13
2022-10-14T08:36:41.484Z,41.25
2022-10-14T08:42:20.784Z,48.88
2022-10-14T08:47:27.349Z,40.85
2022-10-14T08:52:41.615Z,41.55
2022-10-14T08:57:50.702Z,37.85
2022-10-14T09:07:56.390Z,35.55
2022-10-14T09:13:07.381Z,38.60
2022-10-14T09:18:26.858Z,40.55
2022-10-14T09:23:28.474Z,37.28
2022-10-14T09:28:38.814Z,38.72
2022-10-14T09:33:42.778Z,37.22
2022-10-14T09:38:47.987Z,35.45
2022-10-14T09:44:25.834Z,33.17
2022-10-14T09:49:46.549Z,33.73
2022-10-14T09:54:57.164Z,31.02
2022-10-14T10:00:01.127Z,32.35
2022-10-14T10:05:28.507Z,33.58
2022-10-14T10:10:31.049Z,35.92
2022-10-14T10:15:32.502Z,34.80
2022-10-14T10:20:34.192Z,30.33
2022-10-14T10:25:35.636Z,22.63
2022-10-14T10:30:46.366Z,23.88
2022-10-14T10:36:00.655Z,25.77
2022-10-14T10:41:19.957Z,28.65
2022-10-14T10:46:36.637Z,27.40
2022-10-14T10:51:53.552Z,22.70
2022-10-14T10:56:59.163Z,23.70
2022-10-14T11:02:12.403Z,24.67
2022-10-14T11:08:09.117Z,24.52
2022-10-14T11:13:46.725Z,26.73
2022-10-14T11:19:03.198Z,22.85
2022-10-14T11:24:13.551Z,30.63
2022-10-14T11:29:50.265Z,25.48
2022-10-14T11:35:25.282Z,23.95
2022-10-14T11:40:31.961Z,31.60
2022-10-14T11:45:58.001Z,27.52
2022-10-14T11:51:11.039Z,26.77
2022-10-14T11:56:29.530Z,30.30
2022-10-14T12:01:37.252Z,27.65
2022-10-14T12:07:10.088Z,28.75
2022-10-14T12:12:15.011Z,26.67
2022-10-14T12:17:25.642Z,21.20
2022-10-14T12:22:30.355Z,23.45
2022-10-14T12:27:32.348Z,25.88
2022-10-14T12:32:33.864Z,21.23
2022-10-14T12:37:35.921Z,21.15
2022-10-14T12:42:59.001Z,18.30
2022-10-14T12:48:25.296Z,16.23
2022-10-14T12:53:30.587Z,20.52
2022-10-14T12:58:36.380Z,15.48
2022-10-14T13:03:43.942Z,18.02
2022-10-14T13:09:11.186Z,19.05
2022-10-14T13:14:31.207Z,15.90
2022-10-14T13:19:32.556Z,13.40
2022-10-14T13:24:39.750Z,16.58
2022-10-14T13:30:12.071Z,15.20
2022-10-14T13:35:26.347Z,17.52
2022-10-14T13:40:36.952Z,16.02
2022-10-14T13:45:43.363Z,16.52
2022-10-14T13:50:48.449Z,16.08
2022-10-14T13:55:54.581Z,14.45
2022-10-14T14:00:57.933Z,13.07
2022-10-14T14:05:59.992Z,12.77
2022-10-14T14:11:16.330Z,14.18
2022-10-14T14:16:25.366Z,12.90
2022-10-14T14:21:27.898Z,9.63
2022-10-14T14:26:34.806Z,12.10
2022-10-14T14:32:01.885Z,12.45
2022-10-14T14:37:17.257Z,10.85
2022-10-14T14:42:25.801Z,8.50
2022-10-14T14:47:29.008Z,11.00
2022-10-14T14:52:30.779Z,12.32
2022-10-14T14:57:32.222Z,10.90
2022-10-14T15:02:34.981Z,11.60
2022-10-14T15:07:37.036Z,13.80
2022-10-14T15:12:41.975Z,15.80
2022-10-14T15:17:47.585Z,15.90
2022-10-14T15:22:49.151Z,16.55
2022-10-14T15:27:50.566Z,14.75
2022-10-14T15:32:53.219Z,10.15
2022-10-14T15:37:55.082Z,12.43
2022-10-14T15:42:56.669Z,15.30
2022-10-14T15:48:02.720Z,17.77
2022-10-14T15:53:04.149Z,10.82
2022-10-14T15:58:05.937Z,10.85
2022-10-14T16:03:10.430Z,14.23
2022-10-14T16:08:15.325Z,14.20
2022-10-14T16:13:16.749Z,16.38
2022-10-14T16:18:18.424Z,13.70
2022-10-14T16:23:22.482Z,13.15
2022-10-14T16:28:23.910Z,14.73
2022-10-14T16:33:25.601Z,16.08
2022-10-14T16:38:28.200Z,14.57
2022-10-14T16:43:30.009Z,15.82
2022-10-14T16:48:33.813Z,15.10
2022-10-14T16:53:41.222Z,21.15
2022-10-14T16:58:42.648Z,27.15
2022-10-14T17:03:44.059Z,17.10
2022-10-14T17:08:45.528Z,17.58
2022-10-14T17:13:47.257Z,14.35
2022-10-14T17:24:01.378Z,17.05
2022-10-14T17:29:03.610Z,19.38
2022-10-14T17:34:05.344Z,16.20
2022-10-14T17:39:07.774Z,15.18
2022-10-14T17:44:09.233Z,19.40
2022-10-14T17:49:11.992Z,18.35
2022-10-14T17:54:13.433Z,18.80
2022-10-14T17:59:14.835Z,23.08
2022-10-14T18:04:16.370Z,24.52
2022-10-14T18:09:17.788Z,24.98
2022-10-14T18:14:19.188Z,26.33
2022-10-14T18:19:20.584Z,28.67
2022-10-14T18:24:22.622Z,28.98
2022-10-14T18:29:24.645Z,30.55
2022-10-14T18:34:27.369Z,28.00
2022-10-14T18:39:28.815Z,29.77
2022-10-14T18:44:30.311Z,26.55
2022-10-14T18:49:34.531Z,30.40
2022-10-14T18:54:39.611Z,32.47
2022-10-14T18:59:41.055Z,35.03
2022-10-14T19:04:42.514Z,37.92
2022-10-14T19:09:44.659Z,34.40
2022-10-14T19:14:46.769Z,43.40
2022-10-14T19:19:48.218Z,47.70
2022-10-14T19:24:49.643Z,43.88
2022-10-14T19:29:51.052Z,39.00
2022-10-14T19:34:52.501Z,37.42
2022-10-14T19:39:54.101Z,38.97
2022-10-14T19:44:55.538Z,35.30
2022-10-14T19:49:56.969Z,34.88
2022-10-14T19:54:58.423Z,33.22
2022-10-14T19:59:59.887Z,34.67
2022-10-14T20:05:01.381Z,34.67
2022-10-14T20:10:03.274Z,30.88
2022-10-14T20:15:06.708Z,32.67
2022-10-14T20:20:08.772Z,30.25
2022-10-14T20:25:10.303Z,31.95
2022-10-14T20:30:12.578Z,33.50
2022-10-14T20:35:15.114Z,30.40
2022-10-14T20:40:16.918Z,34.13
2022-10-14T20:45:18.698Z,30.20
2022-10-14T20:50:20.476Z,30.33
2022-10-14T20:55:21.872Z,29.20
2022-10-14T21:00:23.322Z,28.40
2022-10-14T21:05:25.278Z,29.27
2022-10-14T21:10:27.327Z,28.67
2022-10-14T21:15:28.764Z,35.50
2022-10-14T21:20:30.544Z,29.70
2022-10-14T21:25:31.966Z,27.60
2022-10-14T21:30:33.628Z,29.00
2022-10-14T21:35:35.204Z,29.05
2022-10-14T21:40:36.814Z,30.10
2022-10-14T21:45:38.282Z,24.83
2022-10-14T21:50:39.675Z,24.70
2022-10-14T21:55:41.109Z,30.08
2022-10-14T22:00:42.559Z,26.45
2022-10-14T22:05:44.387Z,29.75
2022-10-14T22:10:45.867Z,26.05
2022-10-14T22:15:47.343Z,29.27
2022-10-14T22:20:49.972Z,25.92
2022-10-14T22:25:51.389Z,29.15
2022-10-14T22:30:52.796Z,30.65
2022-10-14T22:35:54.193Z,32.30
2022-10-14T22:40:55.637Z,26.85
2022-10-14T22:46:08.757Z,27.00
2022-10-14T22:51:12.540Z,31.20
2022-10-14T22:56:16.922Z,33.55
2022-10-14T23:01:18.432Z,32.70
2022-10-14T23:06:20.221Z,28.17
2022-10-14T23:11:24.025Z,28.38
2022-10-14T23:16:27.275Z,29.90
2022-10-14T23:21:31.242Z,30.17
2022-10-14T23:26:34.969Z,27.08
2022-10-14T23:31:38.534Z,26.80
2022-10-14T23:36:40.373Z,30.15
2022-10-14T23:41:41.881Z,27.75
2022-10-14T23:46:43.360Z,28.50
2022-10-14T23:51:44.852Z,29.48
2022-10-14T23:56:46.282Z,30.35
